createdAt,value
2023-05-10T00:03:53.560Z,77.70
2023-05-10T00:18:53.971Z,79.24
2023-05-10T00:33:53.892Z,79.99
2023-05-10T00:48:54.484Z,80.85
2023-05-10T01:03:55.476Z,81.01
2023-05-10T01:18:55.488Z,82.04
2023-05-10T01:33:55.791Z,82.35
2023-05-10T01:48:57.055Z,83.41
2023-05-10T02:03:57.010Z,84.06
2023-05-10T02:18:57.429Z,84.84
2023-05-10T02:33:57.681Z,86.36
2023-05-10T02:48:58.056Z,85.64
2023-05-10T03:03:58.353Z,86.60
2023-05-10T03:18:58.591Z,87.32
2023-05-10T03:33:58.912Z,87.16
2023-05-10T03:48:59.647Z,86.50
2023-05-10T04:03:59.615Z,85.13
2023-05-10T04:18:59.831Z,82.14
2023-05-10T04:33:59.930Z,79.53
2023-05-10T04:49:00.421Z,75.57
2023-05-10T05:04:01.233Z,70.82
2023-05-10T05:19:01.375Z,68.96
2023-05-10T05:34:01.281Z,65.28
2023-05-10T05:49:01.898Z,63.47
2023-05-10T06:04:02.535Z,60.24
2023-05-10T06:19:02.855Z,58.39
2023-05-10T06:34:02.911Z,57.10
2023-05-10T06:49:02.941Z,57.04
2023-05-10T07:04:03.041Z,55.16
2023-05-10T07:19:03.583Z,54.22
2023-05-10T07:34:03.707Z,54.17
2023-05-10T07:49:03.760Z,51.99
2023-05-10T08:04:04.072Z,52.47
2023-05-10T08:19:03.999Z,53.69
2023-05-10T08:34:03.928Z,50.72
2023-05-10T08:49:04.120Z,50.43
2023-05-10T09:04:04.185Z,48.19
2023-05-10T09:19:04.540Z,47.25
2023-05-10T09:34:04.418Z,45.78
2023-05-10T09:49:04.528Z,46.49
2023-05-10T10:04:04.620Z,47.02
2023-05-10T10:19:05.300Z,48.19
2023-05-10T10:34:05.281Z,46.06
2023-05-10T10:49:05.585Z,45.72
2023-05-10T11:04:05.821Z,45.17
2023-05-10T11:19:06.253Z,45.42
2023-05-10T11:34:07.026Z,44.43
2023-05-10T11:49:07.125Z,42.19
2023-05-10T12:04:07.324Z,43.10
2023-05-10T12:19:07.435Z,42.27
2023-05-10T12:34:07.367Z,39.65
2023-05-10T12:49:09.743Z,39.91
2023-05-10T13:04:10.721Z,38.02
2023-05-10T13:19:12.207Z,39.54
2023-05-10T13:34:12.225Z,37.10
2023-05-10T13:49:12.279Z,36.90
2023-05-10T14:04:12.309Z,37.48
2023-05-10T14:19:12.771Z,37.09
2023-05-10T14:34:12.771Z,34.70
2023-05-10T14:49:13.481Z,36.17
2023-05-10T15:04:13.683Z,39.22
2023-05-10T15:19:14.951Z,37.60
2023-05-10T15:34:16.042Z,37.80
2023-05-10T15:49:15.911Z,39.91
2023-05-10T16:04:16.243Z,42.25
2023-05-10T16:19:16.338Z,59.45
2023-05-10T16:34:16.368Z,61.33
2023-05-10T16:49:18.275Z,65.90
2023-05-10T17:04:18.561Z,70.16
2023-05-10T17:19:18.522Z,73.84
2023-05-10T17:34:18.972Z,77.66
2023-05-10T17:49:19.167Z,80.79
2023-05-10T18:04:19.675Z,83.93
2023-05-10T18:19:19.553Z,87.58
2023-05-10T18:34:19.751Z,90.33
2023-05-10T18:49:22.182Z,93.55
2023-05-10T19:04:24.105Z,92.63
2023-05-10T19:19:24.470Z,96.11
2023-05-10T19:34:25.425Z,98.18
2023-05-10T19:49:25.482Z,98.93
2023-05-10T20:04:28.489Z,99.58
2023-05-10T20:19:28.972Z,99.77
2023-05-10T20:34:29.187Z,96.97
2023-05-10T20:49:29.368Z,98.60
2023-05-10T21:04:29.613Z,97.16
2023-05-10T21:19:30.035Z,96.14
2023-05-10T21:34:30.390Z,97.65
2023-05-10T21:49:30.612Z,94.23
2023-05-10T22:04:30.973Z,94.27
2023-05-10T22:19:32.178Z,87.84
2023-05-10T22:34:32.443Z,85.08
2023-05-10T22:49:32.923Z,86.57
2023-05-10T23:04:34.244Z,92.13
2023-05-10T23:19:34.245Z,93.09
2023-05-10T23:34:34.183Z,89.29
2023-05-10T23:49:35.591Z,89.47
